sensor_id;sensor_type;location;lat;lon;timestamp;pressure;altitude;pressure_sealevel;temperature;humidity
71126;BME280;58785;55.566;38.058;2023-04-21T00:00:45;100398.81;;;7.44;50.04
71126;BME280;58785;55.566;38.058;2023-04-21T00:03:11;100408.22;;;7.37;51.27
71126;BME280;58785;55.566;38.058;2023-04-21T00:05:37;100413.06;;;7.32;50.63
71126;BME280;58785;55.566;38.058;2023-04-21T00:08:07;100395.53;;;7.18;51.31
71126;BME280;58785;55.566;38.058;2023-04-21T00:10:33;100394.44;;;7.10;51.48
71126;BME280;58785;55.566;38.058;2023-04-21T00:12:59;100400.00;;;7.07;51.41
71126;BME280;58785;55.566;38.058;2023-04-21T00:15:25;100402.03;;;7.03;51.77
71126;BME280;58785;55.566;38.058;2023-04-21T00:17:50;100404.91;;;7.00;51.52
71126;BME280;58785;55.566;38.058;2023-04-21T00:20:16;100392.88;;;6.96;52.32
71126;BME280;58785;55.566;38.058;2023-04-21T00:22:42;100395.88;;;6.91;51.97
71126;BME280;58785;55.566;38.058;2023-04-21T00:25:08;100395.81;;;6.80;52.47
71126;BME280;58785;55.566;38.058;2023-04-21T00:27:34;100398.72;;;6.77;52.50
71126;BME280;58785;55.566;38.058;2023-04-21T00:29:59;100396.44;;;6.73;52.88
71126;BME280;58785;55.566;38.058;2023-04-21T00:32:25;100391.47;;;6.68;53.13
71126;BME280;58785;55.566;38.058;2023-04-21T00:34:51;100373.00;;;6.55;53.07
71126;BME280;58785;55.566;38.058;2023-04-21T00:37:17;100385.78;;;6.61;53.37
71126;BME280;58785;55.566;38.058;2023-04-21T00:39:43;100371.19;;;6.56;53.40
71126;BME280;58785;55.566;38.058;2023-04-21T00:42:09;100379.75;;;6.59;53.04
71126;BME280;58785;55.566;38.058;2023-04-21T00:44:34;100374.44;;;6.59;53.02
71126;BME280;58785;55.566;38.058;2023-04-21T00:47:00;100362.28;;;6.57;53.22
71126;BME280;58785;55.566;38.058;2023-04-21T00:49:26;100370.63;;;6.63;52.71
71126;BME280;58785;55.566;38.058;2023-04-21T00:51:52;100370.63;;;6.63;52.66
71126;BME280;58785;55.566;38.058;2023-04-21T00:54:19;100369.66;;;6.65;52.60
71126;BME280;58785;55.566;38.058;2023-04-21T00:56:45;100355.06;;;6.59;52.20
71126;BME280;58785;55.566;38.058;2023-04-21T00:59:11;100350.97;;;6.55;52.34
71126;BME280;58785;55.566;38.058;2023-04-21T01:01:37;100362.28;;;6.57;52.21
71126;BME280;58785;55.566;38.058;2023-04-21T01:04:04;100361.06;;;6.61;52.19
71126;BME280;58785;55.566;38.058;2023-04-21T01:06:30;100360.16;;;6.62;51.69
71126;BME280;58785;55.566;38.058;2023-04-21T01:08:56;100362.56;;;6.65;51.67
71126;BME280;58785;55.566;38.058;2023-04-21T01:11:22;100354.22;;;6.58;51.75
71126;BME280;58785;55.566;38.058;2023-04-21T01:13:54;100361.06;;;6.61;51.81
71126;BME280;58785;55.566;38.058;2023-04-21T01:16:21;100361.06;;;6.61;51.64
71126;BME280;58785;55.566;38.058;2023-04-21T01:18:49;100360.34;;;6.59;52.12
71126;BME280;58785;55.566;38.058;2023-04-21T01:21:15;100359.03;;;6.53;52.13
71126;BME280;58785;55.566;38.058;2023-04-21T01:23:41;100356.38;;;6.53;51.88
71126;BME280;58785;55.566;38.058;2023-04-21T01:26:07;100361.88;;;6.50;52.06
71126;BME280;58785;55.566;38.058;2023-04-21T01:28:33;100361.03;;;6.50;52.14
71126;BME280;58785;55.566;38.058;2023-04-21T01:30:59;100361.53;;;6.44;51.95
71126;BME280;58785;55.566;38.058;2023-04-21T01:33:25;100352.22;;;6.38;52.25
71126;BME280;58785;55.566;38.058;2023-04-21T01:35:51;100337.53;;;6.34;51.96
71126;BME280;58785;55.566;38.058;2023-04-21T01:38:17;100354.97;;;6.37;52.48
71126;BME280;58785;55.566;38.058;2023-04-21T01:40:48;100344.75;;;6.32;52.24
71126;BME280;58785;55.566;38.058;2023-04-21T01:43:16;100350.88;;;6.32;52.41
71126;BME280;58785;55.566;38.058;2023-04-21T01:45:42;100347.72;;;6.27;52.76
71126;BME280;58785;55.566;38.058;2023-04-21T01:48:08;100353.97;;;6.26;52.76
71126;BME280;58785;55.566;38.058;2023-04-21T01:50:33;100345.56;;;6.21;52.42
71126;BME280;58785;55.566;38.058;2023-04-21T01:52:59;100338.78;;;6.17;52.66
71126;BME280;58785;55.566;38.058;2023-04-21T01:55:25;100345.63;;;6.20;52.89
71126;BME280;58785;55.566;38.058;2023-04-21T01:57:51;100344.06;;;6.17;52.56
71126;BME280;58785;55.566;38.058;2023-04-21T02:00:17;100347.56;;;6.18;52.89
71126;BME280;58785;55.566;38.058;2023-04-21T02:02:43;100340.19;;;6.10;53.08
71126;BME280;58785;55.566;38.058;2023-04-21T02:05:08;100349.72;;;6.13;52.58
71126;BME280;58785;55.566;38.058;2023-04-21T02:07:34;100351.53;;;6.12;52.55
71126;BME280;58785;55.566;38.058;2023-04-21T02:10:00;100349.94;;;6.10;52.68
71126;BME280;58785;55.566;38.058;2023-04-21T02:12:25;100343.78;;;6.09;52.91
71126;BME280;58785;55.566;38.058;2023-04-21T02:14:52;100328.13;;;6.06;52.85
71126;BME280;58785;55.566;38.058;2023-04-21T02:17:17;100342.75;;;6.12;53.00
71126;BME280;58785;55.566;38.058;2023-04-21T02:19:43;100343.94;;;6.19;53.24
71126;BME280;58785;55.566;38.058;2023-04-21T02:22:09;100351.69;;;6.22;52.91
71126;BME280;58785;55.566;38.058;2023-04-21T02:24:37;100346.72;;;6.17;53.11
71126;BME280;58785;55.566;38.058;2023-04-21T02:27:03;100361.19;;;6.24;52.73
71126;BME280;58785;55.566;38.058;2023-04-21T02:29:29;100354.09;;;6.25;52.50
71126;BME280;58785;55.566;38.058;2023-04-21T02:31:55;100348.69;;;6.26;53.12
71126;BME280;58785;55.566;38.058;2023-04-21T02:34:21;100358.06;;;6.30;52.96
71126;BME280;58785;55.566;38.058;2023-04-21T02:36:47;100351.63;;;6.34;52.53
71126;BME280;58785;55.566;38.058;2023-04-21T02:39:12;100348.84;;;6.36;52.66
71126;BME280;58785;55.566;38.058;2023-04-21T02:41:38;100352.41;;;6.59;52.20
71126;BME280;58785;55.566;38.058;2023-04-21T02:44:04;100353.31;;;6.82;52.14
71126;BME280;58785;55.566;38.058;2023-04-21T02:46:30;100352.53;;;7.15;51.71
71126;BME280;58785;55.566;38.058;2023-04-21T02:48:56;100337.31;;;7.39;51.42
71126;BME280;58785;55.566;38.058;2023-04-21T02:51:22;100345.34;;;7.71;50.86
71126;BME280;58785;55.566;38.058;2023-04-21T02:53:47;100339.88;;;7.95;50.60
71126;BME280;58785;55.566;38.058;2023-04-21T02:56:13;100341.25;;;8.22;50.73
71126;BME280;58785;55.566;38.058;2023-04-21T02:58:39;100335.75;;;8.46;50.03
71126;BME280;58785;55.566;38.058;2023-04-21T03:01:05;100340.28;;;8.76;49.21
71126;BME280;58785;55.566;38.058;2023-04-21T03:03:31;100330.97;;;8.91;49.12
71126;BME280;58785;55.566;38.058;2023-04-21T03:06:01;100333.75;;;9.10;48.90
71126;BME280;58785;55.566;38.058;2023-04-21T03:08:28;100332.44;;;9.26;48.11
71126;BME280;58785;55.566;38.058;2023-04-21T03:10:54;100346.66;;;9.45;48.24
71126;BME280;58785;55.566;38.058;2023-04-21T03:13:19;100344.31;;;9.52;47.95
71126;BME280;58785;55.566;38.058;2023-04-21T03:15:45;100349.81;;;9.70;47.44
71126;BME280;58785;55.566;38.058;2023-04-21T03:18:11;100351.69;;;9.89;47.33
71126;BME280;58785;55.566;38.058;2023-04-21T03:20:36;100352.97;;;10.04;46.57
71126;BME280;58785;55.566;38.058;2023-04-21T03:23:02;100359.34;;;10.22;46.68
71126;BME280;58785;55.566;38.058;2023-04-21T03:25:28;100357.09;;;10.37;46.43
71126;BME280;58785;55.566;38.058;2023-04-21T03:27:54;100353.75;;;10.54;45.86
71126;BME280;58785;55.566;38.058;2023-04-21T03:30:21;100353.16;;;10.70;45.66
71126;BME280;58785;55.566;38.058;2023-04-21T03:32:47;100354.41;;;10.85;45.30
71126;BME280;58785;55.566;38.058;2023-04-21T03:35:13;100362.81;;;10.90;44.99
71126;BME280;58785;55.566;38.058;2023-04-21T03:37:39;100368.97;;;11.01;44.83
71126;BME280;58785;55.566;38.058;2023-04-21T03:40:05;100349.72;;;11.07;44.58
71126;BME280;58785;55.566;38.058;2023-04-21T03:42:31;100356.81;;;11.26;44.56
71126;BME280;58785;55.566;38.058;2023-04-21T03:45:01;100358.88;;;11.32;43.79
71126;BME280;58785;55.566;38.058;2023-04-21T03:47:29;100361.53;;;11.41;44.13
71126;BME280;58785;55.566;38.058;2023-04-21T03:49:55;100357.56;;;11.55;43.18
71126;BME280;58785;55.566;38.058;2023-04-21T03:52:21;100363.91;;;11.82;43.53
71126;BME280;58785;55.566;38.058;2023-04-21T03:54:47;100357.38;;;11.94;43.07
71126;BME280;58785;55.566;38.058;2023-04-21T03:57:13;100354.78;;;12.02;42.54
71126;BME280;58785;55.566;38.058;2023-04-21T03:59:38;100359.09;;;12.13;42.30
71126;BME280;58785;55.566;38.058;2023-04-21T04:02:04;100350.06;;;12.14;42.63
71126;BME280;58785;55.566;38.058;2023-04-21T04:04:30;100351.38;;;12.27;41.96
71126;BME280;58785;55.566;38.058;2023-04-21T04:06:56;100357.63;;;12.36;41.69
71126;BME280;58785;55.566;38.058;2023-04-21T04:09:22;100353.91;;;12.47;41.75
71126;BME280;58785;55.566;38.058;2023-04-21T04:11:48;100349.75;;;12.52;41.60
71126;BME280;58785;55.566;38.058;2023-04-21T04:14:13;100348.69;;;12.63;41.13
71126;BME280;58785;55.566;38.058;2023-04-21T04:16:39;100345.59;;;12.76;40.94
71126;BME280;58785;55.566;38.058;2023-04-21T04:19:06;100343.59;;;12.78;40.29
71126;BME280;58785;55.566;38.058;2023-04-21T04:21:32;100345.03;;;12.90;40.65
71126;BME280;58785;55.566;38.058;2023-04-21T04:23:58;100346.81;;;13.07;40.27
71126;BME280;58785;55.566;38.058;2023-04-21T04:26:24;100345.50;;;13.11;39.49
71126;BME280;58785;55.566;38.058;2023-04-21T04:28:51;100346.16;;;13.05;39.37
71126;BME280;58785;55.566;38.058;2023-04-21T04:31:17;100348.88;;;13.13;39.25
71126;BME280;58785;55.566;38.058;2023-04-21T04:33:43;100350.00;;;13.11;39.03
71126;BME280;58785;55.566;38.058;2023-04-21T04:36:09;100341.63;;;13.23;39.05
71126;BME280;58785;55.566;38.058;2023-04-21T04:38:36;100351.66;;;13.30;38.71
71126;BME280;58785;55.566;38.058;2023-04-21T04:41:03;100343.78;;;13.28;38.84
71126;BME280;58785;55.566;38.058;2023-04-21T04:43:29;100342.50;;;13.40;38.44
71126;BME280;58785;55.566;38.058;2023-04-21T04:45:58;100341.56;;;13.49;38.20
71126;BME280;58785;55.566;38.058;2023-04-21T04:48:24;100332.09;;;13.63;38.14
71126;BME280;58785;55.566;38.058;2023-04-21T04:50:50;100341.03;;;13.88;37.82
71126;BME280;58785;55.566;38.058;2023-04-21T04:53:16;100343.78;;;14.04;37.29
71126;BME280;58785;55.566;38.058;2023-04-21T04:55:42;100339.56;;;14.10;37.22
71126;BME280;58785;55.566;38.058;2023-04-21T04:58:07;100331.91;;;14.23;36.83
71126;BME280;58785;55.566;38.058;2023-04-21T05:00:33;100325.69;;;14.31;36.70
71126;BME280;58785;55.566;38.058;2023-04-21T05:02:59;100328.25;;;14.49;36.42
71126;BME280;58785;55.566;38.058;2023-04-21T05:05:24;100329.25;;;14.48;36.41
71126;BME280;58785;55.566;38.058;2023-04-21T05:07:50;100329.44;;;14.54;36.39
71126;BME280;58785;55.566;38.058;2023-04-21T05:10:16;100332.44;;;14.59;36.21
71126;BME280;58785;55.566;38.058;2023-04-21T05:12:42;100331.78;;;14.49;36.35
71126;BME280;58785;55.566;38.058;2023-04-21T05:15:08;100324.56;;;14.58;36.58
71126;BME280;58785;55.566;38.058;2023-04-21T05:17:33;100323.91;;;14.64;36.29
71126;BME280;58785;55.566;38.058;2023-04-21T05:19:59;100320.69;;;14.60;35.89
71126;BME280;58785;55.566;38.058;2023-04-21T05:22:25;100322.38;;;14.61;35.85
71126;BME280;58785;55.566;38.058;2023-04-21T05:24:51;100319.53;;;14.71;35.62
71126;BME280;58785;55.566;38.058;2023-04-21T05:27:17;100324.88;;;14.87;35.93
71126;BME280;58785;55.566;38.058;2023-04-21T05:29:43;100307.94;;;14.95;35.17
71126;BME280;58785;55.566;38.058;2023-04-21T05:32:08;100317.66;;;15.04;35.30
71126;BME280;58785;55.566;38.058;2023-04-21T05:34:37;100322.81;;;15.14;35.69
71126;BME280;58785;55.566;38.058;2023-04-21T05:37:02;100323.28;;;15.34;35.15
71126;BME280;58785;55.566;38.058;2023-04-21T05:39:29;100317.34;;;15.46;35.12
71126;BME280;58785;55.566;38.058;2023-04-21T05:41:55;100321.03;;;15.45;35.06
71126;BME280;58785;55.566;38.058;2023-04-21T05:44:20;100316.72;;;15.28;34.75
71126;BME280;58785;55.566;38.058;2023-04-21T05:46:46;100304.34;;;15.19;34.76
71126;BME280;58785;55.566;38.058;2023-04-21T05:49:12;100312.00;;;15.30;34.32
71126;BME280;58785;55.566;38.058;2023-04-21T05:51:37;100310.63;;;15.42;34.65
71126;BME280;58785;55.566;38.058;2023-04-21T05:54:03;100306.59;;;15.46;34.22
71126;BME280;58785;55.566;38.058;2023-04-21T05:56:29;100306.63;;;15.38;34.10
71126;BME280;58785;55.566;38.058;2023-04-21T05:58:55;100305.44;;;15.41;33.74
71126;BME280;58785;55.566;38.058;2023-04-21T06:01:20;100304.53;;;15.57;34.15
71126;BME280;58785;55.566;38.058;2023-04-21T06:03:46;100302.13;;;15.70;33.89
71126;BME280;58785;55.566;38.058;2023-04-21T06:06:14;100305.09;;;15.83;33.59
71126;BME280;58785;55.566;38.058;2023-04-21T06:08:40;100295.13;;;15.92;33.37
71126;BME280;58785;55.566;38.058;2023-04-21T06:11:06;100295.44;;;15.97;33.53
71126;BME280;58785;55.566;38.058;2023-04-21T06:13:31;100296.28;;;15.97;33.24
71126;BME280;58785;55.566;38.058;2023-04-21T06:15:57;100294.06;;;16.01;33.44
71126;BME280;58785;55.566;38.058;2023-04-21T06:18:23;100282.81;;;16.20;33.19
71126;BME280;58785;55.566;38.058;2023-04-21T06:20:52;100291.16;;;16.33;32.86
71126;BME280;58785;55.566;38.058;2023-04-21T06:23:18;100294.25;;;16.45;32.40
71126;BME280;58785;55.566;38.058;2023-04-21T06:25:44;100286.59;;;16.34;32.79
71126;BME280;58785;55.566;38.058;2023-04-21T06:28:10;100287.78;;;16.54;32.61
71126;BME280;58785;55.566;38.058;2023-04-21T06:30:36;100288.41;;;16.79;32.39
71126;BME280;58785;55.566;38.058;2023-04-21T06:33:02;100282.22;;;16.93;32.16
71126;BME280;58785;55.566;38.058;2023-04-21T06:35:29;100286.22;;;16.98;32.14
71126;BME280;58785;55.566;38.058;2023-04-21T06:37:55;100282.28;;;17.00;32.26
71126;BME280;58785;55.566;38.058;2023-04-21T06:40:21;100290.09;;;17.10;31.41
71126;BME280;58785;55.566;38.058;2023-04-21T06:42:46;100282.47;;;17.13;31.96
71126;BME280;58785;55.566;38.058;2023-04-21T06:45:12;100281.75;;;17.19;31.82
71126;BME280;58785;55.566;38.058;2023-04-21T06:47:37;100272.09;;;17.25;31.68
71126;BME280;58785;55.566;38.058;2023-04-21T06:50:03;100274.31;;;17.36;31.56
71126;BME280;58785;55.566;38.058;2023-04-21T06:52:31;100280.19;;;17.25;31.55
71126;BME280;58785;55.566;38.058;2023-04-21T06:54:56;100278.50;;;17.09;31.86
71126;BME280;58785;55.566;38.058;2023-04-21T06:57:22;100271.88;;;17.12;31.84
71126;BME280;58785;55.566;38.058;2023-04-21T06:59:47;100278.31;;;16.96;31.27
71126;BME280;58785;55.566;38.058;2023-04-21T07:02:13;100272.16;;;16.87;31.44
71126;BME280;58785;55.566;38.058;2023-04-21T07:04:38;100277.75;;;16.86;31.55
71126;BME280;58785;55.566;38.058;2023-04-21T07:07:04;100264.47;;;16.84;31.25
71126;BME280;58785;55.566;38.058;2023-04-21T07:09:30;100268.84;;;16.85;31.38
71126;BME280;58785;55.566;38.058;2023-04-21T07:11:58;100265.13;;;16.86;31.27
71126;BME280;58785;55.566;38.058;2023-04-21T07:14:25;100258.41;;;16.82;31.17
71126;BME280;58785;55.566;38.058;2023-04-21T07:16:50;100264.47;;;16.61;30.72
71126;BME280;58785;55.566;38.058;2023-04-21T07:19:16;100263.38;;;16.56;30.96
71126;BME280;58785;55.566;38.058;2023-04-21T07:21:42;100254.72;;;16.60;31.02
71126;BME280;58785;55.566;38.058;2023-04-21T07:24:08;100261.78;;;16.61;30.56
71126;BME280;58785;55.566;38.058;2023-04-21T07:26:33;100260.00;;;16.77;30.66
71126;BME280;58785;55.566;38.058;2023-04-21T07:28:59;100257.00;;;16.72;30.44
71126;BME280;58785;55.566;38.058;2023-04-21T07:31:25;100259.03;;;16.70;30.35
71126;BME280;58785;55.566;38.058;2023-04-21T07:33:51;100256.09;;;16.79;30.50
71126;BME280;58785;55.566;38.058;2023-04-21T07:36:16;100240.69;;;16.88;30.31
71126;BME280;58785;55.566;38.058;2023-04-21T07:38:43;100245.22;;;16.87;30.38
71126;BME280;58785;55.566;38.058;2023-04-21T07:41:12;100245.63;;;16.84;30.49
71126;BME280;58785;55.566;38.058;2023-04-21T07:43:38;100234.84;;;16.84;30.26
71126;BME280;58785;55.566;38.058;2023-04-21T07:46:05;100240.56;;;16.81;30.51
71126;BME280;58785;55.566;38.058;2023-04-21T07:48:31;100230.19;;;16.78;30.70
71126;BME280;58785;55.566;38.058;2023-04-21T07:50:57;100227.41;;;16.86;30.56
71126;BME280;58785;55.566;38.058;2023-04-21T07:53:23;100233.44;;;16.88;30.20
71126;BME280;58785;55.566;38.058;2023-04-21T07:55:49;100231.88;;;16.94;30.44
71126;BME280;58785;55.566;38.058;2023-04-21T07:58:15;100222.66;;;17.03;30.39
71126;BME280;58785;55.566;38.058;2023-04-21T08:00:41;100225.81;;;17.07;30.29
71126;BME280;58785;55.566;38.058;2023-04-21T08:03:07;100234.94;;;17.06;30.70
71126;BME280;58785;55.566;38.058;2023-04-21T08:05:33;100230.84;;;16.95;30.65
71126;BME280;58785;55.566;38.058;2023-04-21T08:07:58;100219.69;;;16.83;30.85
71126;BME280;58785;55.566;38.058;2023-04-21T08:10:24;100219.41;;;16.78;31.20
71126;BME280;58785;55.566;38.058;2023-04-21T08:12:50;100220.25;;;16.79;31.43
71126;BME280;58785;55.566;38.058;2023-04-21T08:15:16;100212.53;;;16.76;31.55
71126;BME280;58785;55.566;38.058;2023-04-21T08:17:42;100217.56;;;16.79;31.60
71126;BME280;58785;55.566;38.058;2023-04-21T08:20:08;100209.84;;;16.76;31.58
71126;BME280;58785;55.566;38.058;2023-04-21T08:22:34;100212.06;;;16.72;31.73
71126;BME280;58785;55.566;38.058;2023-04-21T08:25:01;100208.91;;;16.83;31.78
71126;BME280;58785;55.566;38.058;2023-04-21T08:27:31;100207.81;;;16.78;31.93
71126;BME280;58785;55.566;38.058;2023-04-21T08:29:57;100193.94;;;16.81;32.08
71126;BME280;58785;55.566;38.058;2023-04-21T08:32:24;100197.41;;;16.89;32.21
71126;BME280;58785;55.566;38.058;2023-04-21T08:34:52;100191.00;;;16.76;32.04
71126;BME280;58785;55.566;38.058;2023-04-21T08:37:19;100192.75;;;16.69;32.41
71126;BME280;58785;55.566;38.058;2023-04-21T08:39:45;100189.00;;;16.55;32.25
71126;BME280;58785;55.566;38.058;2023-04-21T08:42:16;100190.47;;;16.57;32.34
71126;BME280;58785;55.566;38.058;2023-04-21T08:44:42;100183.69;;;16.61;32.09
71126;BME280;58785;55.566;38.058;2023-04-21T08:47:13;100179.81;;;16.64;31.88
71126;BME280;58785;55.566;38.058;2023-04-21T08:49:40;100181.38;;;16.58;32.16
71126;BME280;58785;55.566;38.058;2023-04-21T08:52:07;100166.34;;;16.49;32.17
71126;BME280;58785;55.566;38.058;2023-04-21T08:54:33;100171.34;;;16.37;31.91
71126;BME280;58785;55.566;38.058;2023-04-21T08:57:03;100154.34;;;16.37;31.74
71126;BME280;58785;55.566;38.058;2023-04-21T08:59:29;100158.72;;;16.38;31.89
71126;BME280;58785;55.566;38.058;2023-04-21T09:02:13;100165.50;;;16.49;32.62
71126;BME280;58785;55.566;38.058;2023-04-21T09:04:48;100146.28;;;16.52;32.68
71126;BME280;58785;55.566;38.058;2023-04-21T09:07:36;100148.88;;;16.60;32.32
71126;BME280;58785;55.566;38.058;2023-04-21T09:10:04;100155.41;;;16.65;32.24
71126;BME280;58785;55.566;38.058;2023-04-21T09:12:31;100155.22;;;16.67;32.02
71126;BME280;58785;55.566;38.058;2023-04-21T09:14:57;100136.06;;;16.62;31.94
71126;BME280;58785;55.566;38.058;2023-04-21T09:17:30;100138.88;;;16.54;31.81
71126;BME280;58785;55.566;38.058;2023-04-21T09:20:19;100136.66;;;16.57;32.10
71126;BME280;58785;55.566;38.058;2023-04-21T09:22:47;100139.78;;;16.61;32.07
71126;BME280;58785;55.566;38.058;2023-04-21T09:25:20;100134.69;;;16.66;32.28
71126;BME280;58785;55.566;38.058;2023-04-21T09:27:46;100121.16;;;16.74;32.40
71126;BME280;58785;55.566;38.058;2023-04-21T09:30:12;100116.78;;;16.73;32.26
71126;BME280;58785;55.566;38.058;2023-04-21T09:32:39;100112.13;;;16.82;32.25
71126;BME280;58785;55.566;38.058;2023-04-21T09:35:10;100115.66;;;16.82;32.21
71126;BME280;58785;55.566;38.058;2023-04-21T09:37:37;100115.84;;;16.81;32.55
71126;BME280;58785;55.566;38.058;2023-04-21T09:40:03;100110.41;;;16.74;32.28
71126;BME280;58785;55.566;38.058;2023-04-21T09:42:31;100113.16;;;16.66;32.14
71126;BME280;58785;55.566;38.058;2023-04-21T09:44:57;100105.81;;;16.60;31.99
71126;BME280;58785;55.566;38.058;2023-04-21T09:47:23;100094.13;;;16.53;31.82
71126;BME280;58785;55.566;38.058;2023-04-21T09:49:51;100102.94;;;16.61;32.06
71126;BME280;58785;55.566;38.058;2023-04-21T09:52:20;100104.25;;;16.65;32.28
71126;BME280;58785;55.566;38.058;2023-04-21T09:54:51;100105.56;;;16.70;31.74
71126;BME280;58785;55.566;38.058;2023-04-21T09:57:24;100114.00;;;16.66;31.51
71126;BME280;58785;55.566;38.058;2023-04-21T09:59:55;100097.53;;;16.61;31.55
71126;BME280;58785;55.566;38.058;2023-04-21T10:02:24;100101.44;;;16.59;31.95
71126;BME280;58785;55.566;38.058;2023-04-21T10:04:52;100087.25;;;16.50;31.23
71126;BME280;58785;55.566;38.058;2023-04-21T10:07:17;100098.22;;;16.49;31.28
71126;BME280;58785;55.566;38.058;2023-04-21T10:09:50;100087.34;;;16.42;31.44
71126;BME280;58785;55.566;38.058;2023-04-21T10:12:19;100091.72;;;16.58;31.28
71126;BME280;58785;55.566;38.058;2023-04-21T10:14:45;100081.31;;;16.55;31.02
71126;BME280;58785;55.566;38.058;2023-04-21T10:17:15;100087.44;;;16.49;31.03
71126;BME280;58785;55.566;38.058;2023-04-21T10:19:51;100078.91;;;16.45;30.99
71126;BME280;58785;55.566;38.058;2023-04-21T10:22:31;100072.16;;;16.34;31.67
71126;BME280;58785;55.566;38.058;2023-04-21T10:24:58;100056.91;;;16.42;31.31
71126;BME280;58785;55.566;38.058;2023-04-21T10:27:36;100075.94;;;16.55;31.89
71126;BME280;58785;55.566;38.058;2023-04-21T10:30:20;100063.38;;;16.62;31.15
71126;BME280;58785;55.566;38.058;2023-04-21T10:32:48;100066.84;;;16.71;30.80
71126;BME280;58785;55.566;38.058;2023-04-21T10:35:15;100071.28;;;16.78;30.56
71126;BME280;58785;55.566;38.058;2023-04-21T10:37:48;100062.28;;;16.86;30.82
71126;BME280;58785;55.566;38.058;2023-04-21T10:42:55;100061.78;;;16.97;30.50
71126;BME280;58785;55.566;38.058;2023-04-21T10:45:24;100047.91;;;17.00;30.42
71126;BME280;58785;55.566;38.058;2023-04-21T10:47:51;100053.78;;;17.04;30.84
71126;BME280;58785;55.566;38.058;2023-04-21T10:50:27;100051.00;;;16.97;31.10
71126;BME280;58785;55.566;38.058;2023-04-21T10:52:57;100058.50;;;17.02;31.35
71126;BME280;58785;55.566;38.058;2023-04-21T10:55:28;100050.88;;;17.05;30.99
71126;BME280;58785;55.566;38.058;2023-04-21T10:57:54;100039.28;;;17.05;31.29
71126;BME280;58785;55.566;38.058;2023-04-21T11:00:22;100053.34;;;16.85;30.52
71126;BME280;58785;55.566;38.058;2023-04-21T11:03:02;100042.06;;;16.75;30.54
71126;BME280;58785;55.566;38.058;2023-04-21T11:05:39;100041.84;;;16.77;31.01
71126;BME280;58785;55.566;38.058;2023-04-21T11:08:13;100026.25;;;16.72;30.97
71126;BME280;58785;55.566;38.058;2023-04-21T11:10:54;100027.81;;;16.81;30.98
71126;BME280;58785;55.566;38.058;2023-04-21T11:13:25;100015.66;;;16.85;30.82
71126;BME280;58785;55.566;38.058;2023-04-21T11:16:09;100028.28;;;16.85;30.84
71126;BME280;58785;55.566;38.058;2023-04-21T11:18:40;100021.16;;;16.77;31.03
71126;BME280;58785;55.566;38.058;2023-04-21T11:21:13;100019.28;;;16.78;30.91
71126;BME280;58785;55.566;38.058;2023-04-21T11:23:51;100020.00;;;16.86;30.88
71126;BME280;58785;55.566;38.058;2023-04-21T11:26:17;100026.03;;;16.88;30.51
71126;BME280;58785;55.566;38.058;2023-04-21T11:28:49;100016.00;;;16.82;30.29
71126;BME280;58785;55.566;38.058;2023-04-21T11:31:15;99997.56;;;16.64;29.83
71126;BME280;58785;55.566;38.058;2023-04-21T11:33:40;99987.34;;;16.60;30.35
71126;BME280;58785;55.566;38.058;2023-04-21T11:36:07;99980.13;;;16.60;30.56
71126;BME280;58785;55.566;38.058;2023-04-21T13:48:22;99863.41;;;17.17;31.23
71126;BME280;58785;55.566;38.058;2023-04-21T13:50:51;99855.03;;;17.06;31.24
71126;BME280;58785;55.566;38.058;2023-04-21T13:53:16;99868.94;;;17.09;31.60
71126;BME280;58785;55.566;38.058;2023-04-21T13:55:45;99853.56;;;17.03;31.47
71126;BME280;58785;55.566;38.058;2023-04-21T13:58:13;99860.22;;;17.07;31.59
71126;BME280;58785;55.566;38.058;2023-04-21T14:00:40;99841.31;;;17.01;31.57
71126;BME280;58785;55.566;38.058;2023-04-21T14:03:06;99863.69;;;17.01;31.95
71126;BME280;58785;55.566;38.058;2023-04-21T14:05:31;99858.50;;;17.00;31.60
71126;BME280;58785;55.566;38.058;2023-04-21T14:07:58;99853.91;;;16.93;31.75
71126;BME280;58785;55.566;38.058;2023-04-21T14:10:23;99864.03;;;16.91;31.75
71126;BME280;58785;55.566;38.058;2023-04-21T14:12:49;99859.88;;;16.89;31.83
71126;BME280;58785;55.566;38.058;2023-04-21T14:15:15;99859.88;;;16.89;31.47
71126;BME280;58785;55.566;38.058;2023-04-21T14:17:40;99874.56;;;16.86;31.54
71126;BME280;58785;55.566;38.058;2023-04-21T14:20:06;99865.59;;;16.79;31.66
71126;BME280;58785;55.566;38.058;2023-04-21T14:22:34;99865.91;;;16.70;31.75
71126;BME280;58785;55.566;38.058;2023-04-21T14:25:00;99852.94;;;16.58;32.02
71126;BME280;58785;55.566;38.058;2023-04-21T14:27:25;99847.38;;;16.38;32.29
71126;BME280;58785;55.566;38.058;2023-04-21T14:29:51;99856.28;;;16.39;32.09
71126;BME280;58785;55.566;38.058;2023-04-21T14:32:17;99858.63;;;16.27;32.10
71126;BME280;58785;55.566;38.058;2023-04-21T14:34:45;99862.06;;;16.21;32.21
71126;BME280;58785;55.566;38.058;2023-04-21T14:37:11;99846.44;;;16.10;32.35
71126;BME280;58785;55.566;38.058;2023-04-21T14:39:37;99852.97;;;16.22;32.43
71126;BME280;58785;55.566;38.058;2023-04-21T14:42:02;99837.53;;;16.31;32.39
71126;BME280;58785;55.566;38.058;2023-04-21T14:44:28;99845.31;;;16.41;31.95
71126;BME280;58785;55.566;38.058;2023-04-21T14:46:54;99849.16;;;16.53;32.11
71126;BME280;58785;55.566;38.058;2023-04-21T14:49:21;99840.44;;;16.51;31.99
71126;BME280;58785;55.566;38.058;2023-04-21T14:51:46;99837.00;;;16.57;32.11
71126;BME280;58785;55.566;38.058;2023-04-21T15:37:44;99847.22;;;16.04;32.91